sensor_id;sensor_type;location;lat;lon;timestamp;P1;durP1;ratioP1;P2;durP2;ratioP2
69253;SDS011;56364;41.816;12.448;2023-08-06T00:05:35;3.88;;;1.33;;
69253;SDS011;56364;41.816;12.448;2023-08-06T00:10:27;5.70;;;1.60;;
69253;SDS011;56364;41.816;12.448;2023-08-06T00:12:53;5.00;;;1.85;;
69253;SDS011;56364;41.816;12.448;2023-08-06T00:15:19;3.53;;;1.58;;
69253;SDS011;56364;41.816;12.448;2023-08-06T00:17:46;4.30;;;1.83;;
69253;SDS011;56364;41.816;12.448;2023-08-06T00:20:12;5.28;;;1.75;;
69253;SDS011;56364;41.816;12.448;2023-08-06T00:22:38;6.47;;;1.75;;
69253;SDS011;56364;41.816;12.448;2023-08-06T00:25:09;5.32;;;2.08;;
69253;SDS011;56364;41.816;12.448;2023-08-06T00:27:35;7.70;;;2.05;;
69253;SDS011;56364;41.816;12.448;2023-08-06T00:30:03;7.55;;;1.60;;
69253;SDS011;56364;41.816;12.448;2023-08-06T00:32:29;11.93;;;2.00;;
69253;SDS011;56364;41.816;12.448;2023-08-06T00:34:56;10.88;;;2.17;;
69253;SDS011;56364;41.816;12.448;2023-08-06T00:37:22;7.07;;;2.05;;
69253;SDS011;56364;41.816;12.448;2023-08-06T00:42:14;8.68;;;1.50;;
69253;SDS011;56364;41.816;12.448;2023-08-06T00:44:45;3.90;;;1.88;;
69253;SDS011;56364;41.816;12.448;2023-08-06T00:49:37;5.18;;;1.50;;
69253;SDS011;56364;41.816;12.448;2023-08-06T00:52:05;9.27;;;1.70;;
69253;SDS011;56364;41.816;12.448;2023-08-06T00:54:31;3.10;;;1.40;;
69253;SDS011;56364;41.816;12.448;2023-08-06T00:56:57;8.00;;;1.42;;
69253;SDS011;56364;41.816;12.448;2023-08-06T00:59:24;6.78;;;1.55;;
69253;SDS011;56364;41.816;12.448;2023-08-06T01:01:51;5.13;;;1.60;;
69253;SDS011;56364;41.816;12.448;2023-08-06T01:04:17;4.45;;;1.85;;
69253;SDS011;56364;41.816;12.448;2023-08-06T01:06:48;6.30;;;1.45;;
69253;SDS011;56364;41.816;12.448;2023-08-06T01:09:21;3.13;;;1.70;;
69253;SDS011;56364;41.816;12.448;2023-08-06T01:12:05;8.48;;;1.88;;
69253;SDS011;56364;41.816;12.448;2023-08-06T01:15:15;4.55;;;1.52;;
69253;SDS011;56364;41.816;12.448;2023-08-06T01:17:22;4.15;;;1.80;;
69253;SDS011;56364;41.816;12.448;2023-08-06T01:19:51;9.27;;;2.42;;
69253;SDS011;56364;41.816;12.448;2023-08-06T01:22:17;8.70;;;1.88;;
69253;SDS011;56364;41.816;12.448;2023-08-06T01:24:46;7.80;;;1.77;;
69253;SDS011;56364;41.816;12.448;2023-08-06T01:30:17;9.13;;;1.42;;
69253;SDS011;56364;41.816;12.448;2023-08-06T01:32:46;7.95;;;1.52;;
69253;SDS011;56364;41.816;12.448;2023-08-06T01:35:15;5.18;;;2.03;;
69253;SDS011;56364;41.816;12.448;2023-08-06T01:37:59;7.13;;;1.95;;
69253;SDS011;56364;41.816;12.448;2023-08-06T01:40:25;5.78;;;1.80;;
69253;SDS011;56364;41.816;12.448;2023-08-06T01:42:53;4.60;;;2.22;;
69253;SDS011;56364;41.816;12.448;2023-08-06T01:47:45;7.97;;;2.00;;
69253;SDS011;56364;41.816;12.448;2023-08-06T01:50:11;4.32;;;1.85;;
69253;SDS011;56364;41.816;12.448;2023-08-06T01:55:03;7.55;;;1.63;;
69253;SDS011;56364;41.816;12.448;2023-08-06T01:57:29;7.63;;;1.65;;
69253;SDS011;56364;41.816;12.448;2023-08-06T02:02:21;12.18;;;1.85;;
69253;SDS011;56364;41.816;12.448;2023-08-06T02:04:47;3.53;;;1.52;;
69253;SDS011;56364;41.816;12.448;2023-08-06T02:07:15;6.70;;;1.80;;
69253;SDS011;56364;41.816;12.448;2023-08-06T02:09:44;6.38;;;1.60;;
69253;SDS011;56364;41.816;12.448;2023-08-06T02:12:10;7.15;;;1.63;;
69253;SDS011;56364;41.816;12.448;2023-08-06T02:14:36;4.88;;;1.90;;
69253;SDS011;56364;41.816;12.448;2023-08-06T02:17:05;9.43;;;1.90;;
69253;SDS011;56364;41.816;12.448;2023-08-06T02:19:31;3.28;;;1.55;;
69253;SDS011;56364;41.816;12.448;2023-08-06T02:21:58;5.93;;;2.10;;
69253;SDS011;56364;41.816;12.448;2023-08-06T02:24:24;9.32;;;2.78;;
69253;SDS011;56364;41.816;12.448;2023-08-06T02:26:50;6.32;;;2.50;;
69253;SDS011;56364;41.816;12.448;2023-08-06T02:29:26;6.78;;;3.05;;
69253;SDS011;56364;41.816;12.448;2023-08-06T02:31:53;4.05;;;2.00;;
69253;SDS011;56364;41.816;12.448;2023-08-06T02:34:22;5.22;;;2.05;;
69253;SDS011;56364;41.816;12.448;2023-08-06T02:36:48;4.88;;;2.05;;
69253;SDS011;56364;41.816;12.448;2023-08-06T02:39:14;6.28;;;2.03;;
69253;SDS011;56364;41.816;12.448;2023-08-06T02:44:06;5.53;;;2.28;;
69253;SDS011;56364;41.816;12.448;2023-08-06T02:48:58;7.85;;;1.85;;
69253;SDS011;56364;41.816;12.448;2023-08-06T02:51:24;9.30;;;2.33;;
69253;SDS011;56364;41.816;12.448;2023-08-06T02:56:16;10.40;;;2.53;;
69253;SDS011;56364;41.816;12.448;2023-08-06T03:01:08;8.23;;;1.92;;
69253;SDS011;56364;41.816;12.448;2023-08-06T03:06:00;3.92;;;1.75;;
69253;SDS011;56364;41.816;12.448;2023-08-06T03:08:27;7.00;;;1.73;;
69253;SDS011;56364;41.816;12.448;2023-08-06T03:10:53;3.95;;;2.00;;
69253;SDS011;56364;41.816;12.448;2023-08-06T03:16:06;5.88;;;1.60;;
69253;SDS011;56364;41.816;12.448;2023-08-06T03:21:08;6.72;;;1.88;;
69253;SDS011;56364;41.816;12.448;2023-08-06T03:23:34;4.25;;;1.75;;
69253;SDS011;56364;41.816;12.448;2023-08-06T03:26:01;6.75;;;1.95;;
69253;SDS011;56364;41.816;12.448;2023-08-06T03:28:28;5.13;;;1.63;;
69253;SDS011;56364;41.816;12.448;2023-08-06T03:30:59;3.33;;;1.80;;
69253;SDS011;56364;41.816;12.448;2023-08-06T03:33:25;9.07;;;1.63;;
69253;SDS011;56364;41.816;12.448;2023-08-06T03:35:52;7.28;;;2.40;;
69253;SDS011;56364;41.816;12.448;2023-08-06T03:38:18;4.72;;;1.90;;
69253;SDS011;56364;41.816;12.448;2023-08-06T03:43:10;10.05;;;1.98;;
69253;SDS011;56364;41.816;12.448;2023-08-06T03:45:36;8.13;;;1.73;;
69253;SDS011;56364;41.816;12.448;2023-08-06T03:48:02;4.15;;;1.55;;
69253;SDS011;56364;41.816;12.448;2023-08-06T03:52:54;4.45;;;1.83;;
69253;SDS011;56364;41.816;12.448;2023-08-06T03:55:20;5.45;;;1.83;;
69253;SDS011;56364;41.816;12.448;2023-08-06T03:57:46;8.43;;;1.88;;
69253;SDS011;56364;41.816;12.448;2023-08-06T04:00:12;6.32;;;2.00;;
69253;SDS011;56364;41.816;12.448;2023-08-06T04:02:41;8.50;;;1.67;;
69253;SDS011;56364;41.816;12.448;2023-08-06T04:05:08;3.35;;;1.63;;
69253;SDS011;56364;41.816;12.448;2023-08-06T04:07:34;7.32;;;1.73;;
69253;SDS011;56364;41.816;12.448;2023-08-06T04:10:01;5.38;;;1.92;;
69253;SDS011;56364;41.816;12.448;2023-08-06T04:12:27;3.92;;;1.70;;
69253;SDS011;56364;41.816;12.448;2023-08-06T04:20:14;11.95;;;1.75;;
69253;SDS011;56364;41.816;12.448;2023-08-06T04:22:41;5.85;;;1.55;;
69253;SDS011;56364;41.816;12.448;2023-08-06T04:27:33;3.08;;;1.55;;
69253;SDS011;56364;41.816;12.448;2023-08-06T04:32:25;6.38;;;1.70;;
69253;SDS011;56364;41.816;12.448;2023-08-06T04:34:55;8.35;;;1.77;;
69253;SDS011;56364;41.816;12.448;2023-08-06T04:37:22;2.72;;;1.55;;
69253;SDS011;56364;41.816;12.448;2023-08-06T04:42:15;6.78;;;1.65;;
69253;SDS011;56364;41.816;12.448;2023-08-06T04:47:07;4.22;;;1.80;;
69253;SDS011;56364;41.816;12.448;2023-08-06T04:49:34;9.27;;;1.67;;
69253;SDS011;56364;41.816;12.448;2023-08-06T04:54:26;4.78;;;1.83;;
69253;SDS011;56364;41.816;12.448;2023-08-06T04:56:52;4.38;;;1.60;;
69253;SDS011;56364;41.816;12.448;2023-08-06T04:59:19;2.13;;;1.40;;
69253;SDS011;56364;41.816;12.448;2023-08-06T05:01:45;6.72;;;1.52;;
69253;SDS011;56364;41.816;12.448;2023-08-06T05:06:37;3.08;;;1.70;;
69253;SDS011;56364;41.816;12.448;2023-08-06T05:11:31;7.28;;;1.80;;
69253;SDS011;56364;41.816;12.448;2023-08-06T05:13:57;7.55;;;1.67;;
69253;SDS011;56364;41.816;12.448;2023-08-06T05:18:52;6.20;;;2.25;;
69253;SDS011;56364;41.816;12.448;2023-08-06T05:23:44;5.13;;;1.92;;
69253;SDS011;56364;41.816;12.448;2023-08-06T05:28:36;4.57;;;2.40;;
69253;SDS011;56364;41.816;12.448;2023-08-06T05:33:28;6.63;;;2.30;;
69253;SDS011;56364;41.816;12.448;2023-08-06T05:35:57;3.33;;;2.05;;
69253;SDS011;56364;41.816;12.448;2023-08-06T05:38:25;6.70;;;2.33;;
69253;SDS011;56364;41.816;12.448;2023-08-06T05:46:02;5.63;;;2.25;;
69253;SDS011;56364;41.816;12.448;2023-08-06T05:48:29;10.23;;;2.47;;
69253;SDS011;56364;41.816;12.448;2023-08-06T05:50:55;4.75;;;2.30;;
69253;SDS011;56364;41.816;12.448;2023-08-06T05:53:21;8.25;;;2.17;;
69253;SDS011;56364;41.816;12.448;2023-08-06T05:58:13;6.60;;;2.03;;
69253;SDS011;56364;41.816;12.448;2023-08-06T06:03:06;4.80;;;1.90;;
69253;SDS011;56364;41.816;12.448;2023-08-06T06:05:32;4.18;;;1.67;;
69253;SDS011;56364;41.816;12.448;2023-08-06T06:08:01;8.57;;;1.88;;
69253;SDS011;56364;41.816;12.448;2023-08-06T06:10:27;6.13;;;1.92;;
69253;SDS011;56364;41.816;12.448;2023-08-06T06:15:19;4.15;;;1.48;;
69253;SDS011;56364;41.816;12.448;2023-08-06T06:20:12;3.78;;;2.03;;
69253;SDS011;56364;41.816;12.448;2023-08-06T06:22:38;5.25;;;1.77;;
69253;SDS011;56364;41.816;12.448;2023-08-06T06:25:04;10.02;;;1.90;;
69253;SDS011;56364;41.816;12.448;2023-08-06T06:27:32;4.75;;;2.08;;
69253;SDS011;56364;41.816;12.448;2023-08-06T06:29:58;7.65;;;1.73;;
69253;SDS011;56364;41.816;12.448;2023-08-06T06:34:50;3.58;;;1.15;;
69253;SDS011;56364;41.816;12.448;2023-08-06T06:37:16;3.95;;;1.35;;
69253;SDS011;56364;41.816;12.448;2023-08-06T06:39:42;3.13;;;1.20;;
69253;SDS011;56364;41.816;12.448;2023-08-06T06:42:09;1.77;;;0.93;;
69253;SDS011;56364;41.816;12.448;2023-08-06T06:44:35;5.55;;;1.20;;
69253;SDS011;56364;41.816;12.448;2023-08-06T06:49:37;2.03;;;1.08;;
69253;SDS011;56364;41.816;12.448;2023-08-06T06:52:04;2.45;;;0.98;;
69253;SDS011;56364;41.816;12.448;2023-08-06T06:54:30;4.05;;;1.00;;
69253;SDS011;56364;41.816;12.448;2023-08-06T06:56:56;3.35;;;0.85;;
69253;SDS011;56364;41.816;12.448;2023-08-06T06:59:22;1.45;;;0.80;;
69253;SDS011;56364;41.816;12.448;2023-08-06T07:01:49;5.15;;;1.33;;
69253;SDS011;56364;41.816;12.448;2023-08-06T07:06:47;5.97;;;1.27;;
69253;SDS011;56364;41.816;12.448;2023-08-06T07:09:13;5.95;;;1.40;;
69253;SDS011;56364;41.816;12.448;2023-08-06T07:11:39;5.97;;;1.52;;
69253;SDS011;56364;41.816;12.448;2023-08-06T07:14:08;6.30;;;1.60;;
69253;SDS011;56364;41.816;12.448;2023-08-06T07:16:36;5.32;;;1.00;;
69253;SDS011;56364;41.816;12.448;2023-08-06T07:19:05;6.97;;;1.65;;
69253;SDS011;56364;41.816;12.448;2023-08-06T07:21:34;14.45;;;1.60;;
69253;SDS011;56364;41.816;12.448;2023-08-06T07:24:01;6.30;;;1.63;;
69253;SDS011;56364;41.816;12.448;2023-08-06T07:26:29;11.95;;;1.85;;
69253;SDS011;56364;41.816;12.448;2023-08-06T07:28:59;8.93;;;1.73;;
69253;SDS011;56364;41.816;12.448;2023-08-06T07:31:25;15.15;;;2.50;;
69253;SDS011;56364;41.816;12.448;2023-08-06T07:33:51;18.70;;;2.53;;
69253;SDS011;56364;41.816;12.448;2023-08-06T07:36:17;18.70;;;3.17;;
69253;SDS011;56364;41.816;12.448;2023-08-06T07:38:43;13.45;;;2.35;;
69253;SDS011;56364;41.816;12.448;2023-08-06T07:41:09;20.73;;;2.97;;
69253;SDS011;56364;41.816;12.448;2023-08-06T07:43:36;19.23;;;2.75;;
69253;SDS011;56364;41.816;12.448;2023-08-06T07:46:05;16.52;;;2.35;;
69253;SDS011;56364;41.816;12.448;2023-08-06T09:14:13;12.20;;;2.38;;
69253;SDS011;56364;41.816;12.448;2023-08-06T09:16:39;19.17;;;2.40;;
69253;SDS011;56364;41.816;12.448;2023-08-06T09:19:09;13.80;;;1.95;;
69253;SDS011;56364;41.816;12.448;2023-08-06T09:21:39;19.17;;;2.55;;
69253;SDS011;56364;41.816;12.448;2023-08-06T09:24:12;20.02;;;2.45;;
69253;SDS011;56364;41.816;12.448;2023-08-06T09:26:43;22.88;;;3.17;;
69253;SDS011;56364;41.816;12.448;2023-08-06T09:29:10;18.48;;;2.65;;
69253;SDS011;56364;41.816;12.448;2023-08-06T09:34:03;13.82;;;2.45;;
69253;SDS011;56364;41.816;12.448;2023-08-06T09:36:39;22.27;;;3.42;;
69253;SDS011;56364;41.816;12.448;2023-08-06T09:39:12;20.00;;;2.42;;
69253;SDS011;56364;41.816;12.448;2023-08-06T09:41:38;13.18;;;2.58;;
69253;SDS011;56364;41.816;12.448;2023-08-06T09:44:05;15.32;;;2.47;;
69253;SDS011;56364;41.816;12.448;2023-08-06T09:46:31;15.98;;;2.50;;
69253;SDS011;56364;41.816;12.448;2023-08-06T09:48:58;19.10;;;3.28;;
69253;SDS011;56364;41.816;12.448;2023-08-06T09:51:27;13.13;;;2.05;;
69253;SDS011;56364;41.816;12.448;2023-08-06T09:53:54;15.93;;;2.42;;
69253;SDS011;56364;41.816;12.448;2023-08-06T09:56:22;19.67;;;2.85;;
69253;SDS011;56364;41.816;12.448;2023-08-06T09:58:51;17.05;;;2.50;;
69253;SDS011;56364;41.816;12.448;2023-08-06T10:01:18;26.70;;;2.33;;
69253;SDS011;56364;41.816;12.448;2023-08-06T10:03:44;19.55;;;2.83;;
69253;SDS011;56364;41.816;12.448;2023-08-06T10:06:12;22.13;;;2.50;;
69253;SDS011;56364;41.816;12.448;2023-08-06T10:08:40;20.70;;;2.55;;
69253;SDS011;56364;41.816;12.448;2023-08-06T10:11:07;15.93;;;2.22;;
69253;SDS011;56364;41.816;12.448;2023-08-06T10:13:33;22.70;;;2.40;;
69253;SDS011;56364;41.816;12.448;2023-08-06T10:16:01;15.48;;;2.78;;
69253;SDS011;56364;41.816;12.448;2023-08-06T10:18:27;14.25;;;2.17;;
69253;SDS011;56364;41.816;12.448;2023-08-06T10:20:54;12.07;;;2.10;;
69253;SDS011;56364;41.816;12.448;2023-08-06T10:26:31;15.55;;;3.13;;
69253;SDS011;56364;41.816;12.448;2023-08-06T10:28:58;11.80;;;1.70;;
69253;SDS011;56364;41.816;12.448;2023-08-06T10:37:15;14.55;;;2.50;;
69253;SDS011;56364;41.816;12.448;2023-08-06T10:39:48;16.80;;;2.08;;
69253;SDS011;56364;41.816;12.448;2023-08-06T10:42:28;21.00;;;2.85;;
69253;SDS011;56364;41.816;12.448;2023-08-06T10:47:40;13.40;;;2.13;;
69253;SDS011;56364;41.816;12.448;2023-08-06T10:50:16;13.18;;;1.90;;
69253;SDS011;56364;41.816;12.448;2023-08-06T10:52:43;7.55;;;1.98;;
69253;SDS011;56364;41.816;12.448;2023-08-06T10:55:09;14.40;;;2.65;;
69253;SDS011;56364;41.816;12.448;2023-08-06T10:57:36;11.85;;;1.60;;
69253;SDS011;56364;41.816;12.448;2023-08-06T11:00:05;19.35;;;2.25;;
69253;SDS011;56364;41.816;12.448;2023-08-06T11:02:38;18.65;;;2.03;;
69253;SDS011;56364;41.816;12.448;2023-08-06T11:05:07;14.38;;;2.33;;
69253;SDS011;56364;41.816;12.448;2023-08-06T11:07:38;15.80;;;1.92;;
69253;SDS011;56364;41.816;12.448;2023-08-06T11:16:26;16.77;;;2.78;;
69253;SDS011;56364;41.816;12.448;2023-08-06T11:18:52;12.32;;;2.47;;
69253;SDS011;56364;41.816;12.448;2023-08-06T11:23:55;13.88;;;2.03;;
69253;SDS011;56364;41.816;12.448;2023-08-06T11:26:22;14.75;;;2.58;;
69253;SDS011;56364;41.816;12.448;2023-08-06T11:28:48;13.30;;;2.10;;
69253;SDS011;56364;41.816;12.448;2023-08-06T11:31:19;13.25;;;2.63;;
69253;SDS011;56364;41.816;12.448;2023-08-06T11:33:46;13.43;;;2.88;;
69253;SDS011;56364;41.816;12.448;2023-08-06T11:36:36;15.32;;;2.10;;
69253;SDS011;56364;41.816;12.448;2023-08-06T11:39:06;10.98;;;2.03;;
69253;SDS011;56364;41.816;12.448;2023-08-06T11:41:32;13.80;;;3.03;;
69253;SDS011;56364;41.816;12.448;2023-08-06T11:43:58;10.88;;;1.88;;
69253;SDS011;56364;41.816;12.448;2023-08-06T11:46:25;16.88;;;2.38;;
69253;SDS011;56364;41.816;12.448;2023-08-06T11:48:55;12.77;;;2.10;;
69253;SDS011;56364;41.816;12.448;2023-08-06T11:51:22;20.02;;;2.60;;
69253;SDS011;56364;41.816;12.448;2023-08-06T11:53:58;16.73;;;3.03;;
69253;SDS011;56364;41.816;12.448;2023-08-06T11:56:24;8.23;;;1.52;;
69253;SDS011;56364;41.816;12.448;2023-08-06T12:01:31;14.93;;;1.80;;
69253;SDS011;56364;41.816;12.448;2023-08-06T12:06:41;16.15;;;2.30;;
69253;SDS011;56364;41.816;12.448;2023-08-06T12:09:08;11.65;;;2.78;;
69253;SDS011;56364;41.816;12.448;2023-08-06T12:11:38;16.00;;;1.92;;
69253;SDS011;56364;41.816;12.448;2023-08-06T12:14:10;10.60;;;1.73;;
69253;SDS011;56364;41.816;12.448;2023-08-06T12:16:36;19.98;;;2.65;;
69253;SDS011;56364;41.816;12.448;2023-08-06T12:19:11;10.60;;;2.08;;
69253;SDS011;56364;41.816;12.448;2023-08-06T12:21:37;17.70;;;2.25;;
69253;SDS011;56364;41.816;12.448;2023-08-06T12:24:03;21.08;;;2.92;;
69253;SDS011;56364;41.816;12.448;2023-08-06T12:26:31;15.35;;;2.40;;
69253;SDS011;56364;41.816;12.448;2023-08-06T12:28:57;17.80;;;2.03;;
69253;SDS011;56364;41.816;12.448;2023-08-06T12:31:23;19.20;;;2.25;;
69253;SDS011;56364;41.816;12.448;2023-08-06T12:33:49;15.95;;;2.00;;
69253;SDS011;56364;41.816;12.448;2023-08-06T12:36:15;14.43;;;2.15;;
69253;SDS011;56364;41.816;12.448;2023-08-06T12:38:41;10.27;;;2.03;;
69253;SDS011;56364;41.816;12.448;2023-08-06T12:41:25;9.30;;;1.55;;
69253;SDS011;56364;41.816;12.448;2023-08-06T12:46:50;14.23;;;2.40;;
69253;SDS011;56364;41.816;12.448;2023-08-06T12:49:19;13.52;;;1.88;;
69253;SDS011;56364;41.816;12.448;2023-08-06T12:51:46;11.45;;;2.00;;
69253;SDS011;56364;41.816;12.448;2023-08-06T12:54:12;11.57;;;2.03;;
69253;SDS011;56364;41.816;12.448;2023-08-06T12:56:38;13.52;;;2.03;;
69253;SDS011;56364;41.816;12.448;2023-08-06T12:59:04;15.75;;;2.47;;
69253;SDS011;56364;41.816;12.448;2023-08-06T13:17:11;9.93;;;1.85;;
69253;SDS011;56364;41.816;12.448;2023-08-06T13:22:13;13.70;;;2.08;;
69253;SDS011;56364;41.816;12.448;2023-08-06T13:24:40;14.10;;;1.70;;
69253;SDS011;56364;41.816;12.448;2023-08-06T13:27:06;8.27;;;1.98;;
69253;SDS011;56364;41.816;12.448;2023-08-06T13:29:34;15.98;;;1.67;;
69253;SDS011;56364;41.816;12.448;2023-08-06T13:32:00;13.75;;;2.08;;
69253;SDS011;56364;41.816;12.448;2023-08-06T13:34:26;13.52;;;1.90;;
69253;SDS011;56364;41.816;12.448;2023-08-06T13:36:54;10.85;;;1.83;;
69253;SDS011;56364;41.816;12.448;2023-08-06T13:44:33;9.45;;;1.55;;
69253;SDS011;56364;41.816;12.448;2023-08-06T13:47:03;12.07;;;1.92;;
69253;SDS011;56364;41.816;12.448;2023-08-06T13:49:58;9.77;;;1.85;;
69253;SDS011;56364;41.816;12.448;2023-08-06T13:52:47;13.55;;;2.50;;
69253;SDS011;56364;41.816;12.448;2023-08-06T13:55:13;8.07;;;2.28;;
69253;SDS011;56364;41.816;12.448;2023-08-06T13:57:39;16.02;;;1.85;;
69253;SDS011;56364;41.816;12.448;2023-08-06T14:00:08;6.20;;;1.50;;
69253;SDS011;56364;41.816;12.448;2023-08-06T14:02:35;6.82;;;1.52;;
69253;SDS011;56364;41.816;12.448;2023-08-06T14:26:10;20.30;;;3.08;;
69253;SDS011;56364;41.816;12.448;2023-08-06T14:28:36;13.77;;;2.35;;
69253;SDS011;56364;41.816;12.448;2023-08-06T14:31:03;14.27;;;1.92;;
69253;SDS011;56364;41.816;12.448;2023-08-06T14:33:29;10.80;;;1.90;;
69253;SDS011;56364;41.816;12.448;2023-08-06T14:35:57;10.23;;;1.45;;
69253;SDS011;56364;41.816;12.448;2023-08-06T14:38:36;8.57;;;2.00;;
69253;SDS011;56364;41.816;12.448;2023-08-06T14:46:16;10.15;;;2.25;;
69253;SDS011;56364;41.816;12.448;2023-08-06T14:48:42;8.15;;;1.90;;
69253;SDS011;56364;41.816;12.448;2023-08-06T14:51:16;11.25;;;2.13;;
69253;SDS011;56364;41.816;12.448;2023-08-06T14:53:46;12.85;;;1.88;;
69253;SDS011;56364;41.816;12.448;2023-08-06T14:56:21;14.82;;;3.03;;
69253;SDS011;56364;41.816;12.448;2023-08-06T14:58:48;6.82;;;1.67;;
69253;SDS011;56364;41.816;12.448;2023-08-06T15:01:14;15.63;;;2.45;;
69253;SDS011;56364;41.816;12.448;2023-08-06T15:03:52;7.50;;;1.90;;
69253;SDS011;56364;41.816;12.448;2023-08-06T15:06:19;10.60;;;2.45;;
69253;SDS011;56364;41.816;12.448;2023-08-06T15:08:45;14.13;;;1.95;;
69253;SDS011;56364;41.816;12.448;2023-08-06T15:11:13;8.05;;;1.98;;
69253;SDS011;56364;41.816;12.448;2023-08-06T15:13:41;7.55;;;2.00;;
69253;SDS011;56364;41.816;12.448;2023-08-06T15:16:08;11.15;;;1.98;;
69253;SDS011;56364;41.816;12.448;2023-08-06T15:18:35;8.57;;;2.40;;
69253;SDS011;56364;41.816;12.448;2023-08-06T15:21:01;8.10;;;1.73;;
69253;SDS011;56364;41.816;12.448;2023-08-06T15:23:27;17.30;;;2.28;;
69253;SDS011;56364;41.816;12.448;2023-08-06T15:25:53;9.75;;;1.80;;
69253;SDS011;56364;41.816;12.448;2023-08-06T15:28:20;10.07;;;2.30;;
69253;SDS011;56364;41.816;12.448;2023-08-06T15:30:50;14.13;;;2.25;;
69253;SDS011;56364;41.816;12.448;2023-08-06T15:33:19;6.88;;;1.75;;
69253;SDS011;56364;41.816;12.448;2023-08-06T15:35:45;13.93;;;2.10;;
69253;SDS011;56364;41.816;12.448;2023-08-06T15:38:11;6.95;;;1.27;;
69253;SDS011;56364;41.816;12.448;2023-08-06T15:40:38;8.68;;;1.63;;
69253;SDS011;56364;41.816;12.448;2023-08-06T15:43:07;10.95;;;2.40;;
69253;SDS011;56364;41.816;12.448;2023-08-06T15:46:14;7.43;;;1.58;;
69253;SDS011;56364;41.816;12.448;2023-08-06T15:48:43;9.35;;;2.10;;
69253;SDS011;56364;41.816;12.448;2023-08-06T15:51:10;9.50;;;1.73;;
69253;SDS011;56364;41.816;12.448;2023-08-06T15:53:41;5.57;;;1.85;;
69253;SDS011;56364;41.816;12.448;2023-08-06T15:56:07;10.65;;;1.90;;
69253;SDS011;56364;41.816;12.448;2023-08-06T15:58:34;9.38;;;1.48;;
69253;SDS011;56364;41.816;12.448;2023-08-06T16:01:00;10.00;;;2.22;;
69253;SDS011;56364;41.816;12.448;2023-08-06T16:03:27;9.43;;;1.77;;
69253;SDS011;56364;41.816;12.448;2023-08-06T16:05:56;10.30;;;1.75;;
69253;SDS011;56364;41.816;12.448;2023-08-06T16:08:22;12.85;;;1.80;;
69253;SDS011;56364;41.816;12.448;2023-08-06T16:10:49;15.57;;;1.92;;
69253;SDS011;56364;41.816;12.448;2023-08-06T16:13:16;11.32;;;2.08;;
69253;SDS011;56364;41.816;12.448;2023-08-06T16:15:42;11.05;;;2.10;;
69253;SDS011;56364;41.816;12.448;2023-08-06T16:18:08;9.18;;;1.88;;
69253;SDS011;56364;41.816;12.448;2023-08-06T16:20:34;8.32;;;1.83;;
69253;SDS011;56364;41.816;12.448;2023-08-06T16:23:00;7.90;;;1.52;;
69253;SDS011;56364;41.816;12.448;2023-08-06T16:25:28;6.65;;;1.58;;
69253;SDS011;56364;41.816;12.448;2023-08-06T16:28:06;8.18;;;1.75;;
69253;SDS011;56364;41.816;12.448;2023-08-06T16:30:32;10.02;;;2.50;;
69253;SDS011;56364;41.816;12.448;2023-08-06T16:33:18;10.80;;;1.95;;
69253;SDS011;56364;41.816;12.448;2023-08-06T16:35:44;13.30;;;2.25;;
69253;SDS011;56364;41.816;12.448;2023-08-06T16:38:10;11.23;;;2.40;;
69253;SDS011;56364;41.816;12.448;2023-08-06T16:40:36;5.28;;;1.65;;
69253;SDS011;56364;41.816;12.448;2023-08-06T16:43:05;12.27;;;1.60;;
69253;SDS011;56364;41.816;12.448;2023-08-06T16:45:31;12.10;;;2.08;;
69253;SDS011;56364;41.816;12.448;2023-08-06T16:48:03;14.55;;;2.40;;
69253;SDS011;56364;41.816;12.448;2023-08-06T16:50:29;6.70;;;1.80;;
69253;SDS011;56364;41.816;12.448;2023-08-06T16:52:55;9.57;;;2.00;;
69253;SDS011;56364;41.816;12.448;2023-08-06T16:55:22;9.15;;;1.95;;
69253;SDS011;56364;41.816;12.448;2023-08-06T16:57:50;10.80;;;1.70;;
69253;SDS011;56364;41.816;12.448;2023-08-06T17:02:55;9.07;;;2.28;;
69253;SDS011;56364;41.816;12.448;2023-08-06T17:05:32;10.73;;;1.52;;
69253;SDS011;56364;41.816;12.448;2023-08-06T17:08:00;8.35;;;1.20;;
69253;SDS011;56364;41.816;12.448;2023-08-06T17:10:26;12.90;;;2.03;;
69253;SDS011;56364;41.816;12.448;2023-08-06T17:12:59;6.50;;;1.73;;
69253;SDS011;56364;41.816;12.448;2023-08-06T17:15:25;4.40;;;1.40;;
69253;SDS011;56364;41.816;12.448;2023-08-06T17:17:51;7.90;;;1.60;;
69253;SDS011;56364;41.816;12.448;2023-08-06T17:20:36;9.27;;;2.10;;
69253;SDS011;56364;41.816;12.448;2023-08-06T17:23:02;9.73;;;1.45;;
69253;SDS011;56364;41.816;12.448;2023-08-06T17:25:31;6.53;;;1.70;;
69253;SDS011;56364;41.816;12.448;2023-08-06T17:28:02;8.05;;;1.60;;
69253;SDS011;56364;41.816;12.448;2023-08-06T17:30:31;9.50;;;1.63;;
69253;SDS011;56364;41.816;12.448;2023-08-06T17:32:57;7.03;;;1.45;;
69253;SDS011;56364;41.816;12.448;2023-08-06T17:35:26;9.23;;;1.52;;
69253;SDS011;56364;41.816;12.448;2023-08-06T17:37:57;10.35;;;2.25;;
69253;SDS011;56364;41.816;12.448;2023-08-06T17:40:24;12.32;;;1.85;;
69253;SDS011;56364;41.816;12.448;2023-08-06T17:42:50;8.55;;;1.63;;
69253;SDS011;56364;41.816;12.448;2023-08-06T17:45:17;11.18;;;1.88;;
69253;SDS011;56364;41.816;12.448;2023-08-06T17:47:43;9.25;;;1.75;;
69253;SDS011;56364;41.816;12.448;2023-08-06T17:50:09;9.90;;;1.65;;
69253;SDS011;56364;41.816;12.448;2023-08-06T17:52:35;10.02;;;1.73;;
69253;SDS011;56364;41.816;12.448;2023-08-06T17:55:02;6.20;;;1.48;;
69253;SDS011;56364;41.816;12.448;2023-08-06T17:57:33;9.68;;;1.83;;
69253;SDS011;56364;41.816;12.448;2023-08-06T18:00:02;10.63;;;1.92;;
69253;SDS011;56364;41.816;12.448;2023-08-06T18:02:36;9.43;;;2.55;;
69253;SDS011;56364;41.816;12.448;2023-08-06T18:05:02;13.23;;;2.10;;
69253;SDS011;56364;41.816;12.448;2023-08-06T18:07:28;9.05;;;1.60;;
69253;SDS011;56364;41.816;12.448;2023-08-06T18:09:57;17.95;;;2.33;;
69253;SDS011;56364;41.816;12.448;2023-08-06T18:12:23;9.25;;;2.50;;
69253;SDS011;56364;41.816;12.448;2023-08-06T18:14:49;9.00;;;1.92;;
69253;SDS011;56364;41.816;12.448;2023-08-06T18:17:15;13.70;;;2.13;;
69253;SDS011;56364;41.816;12.448;2023-08-06T18:19:44;16.23;;;2.88;;
69253;SDS011;56364;41.816;12.448;2023-08-06T18:22:17;13.32;;;2.70;;
69253;SDS011;56364;41.816;12.448;2023-08-06T18:24:43;11.95;;;2.13;;
69253;SDS011;56364;41.816;12.448;2023-08-06T18:27:09;11.50;;;2.53;;
69253;SDS011;56364;41.816;12.448;2023-08-06T18:29:42;14.38;;;2.03;;
69253;SDS011;56364;41.816;12.448;2023-08-06T18:32:10;9.50;;;1.73;;
69253;SDS011;56364;41.816;12.448;2023-08-06T18:34:36;6.88;;;1.63;;
69253;SDS011;56364;41.816;12.448;2023-08-06T18:37:03;9.15;;;1.80;;
69253;SDS011;56364;41.816;12.448;2023-08-06T18:39:29;17.70;;;2.42;;
69253;SDS011;56364;41.816;12.448;2023-08-06T18:41:55;21.90;;;3.08;;
69253;SDS011;56364;41.816;12.448;2023-08-06T18:44:21;13.95;;;2.55;;
69253;SDS011;56364;41.816;12.448;2023-08-06T18:46:47;16.50;;;2.20;;
69253;SDS011;56364;41.816;12.448;2023-08-06T18:49:13;17.27;;;1.90;;
69253;SDS011;56364;41.816;12.448;2023-08-06T18:51:39;16.65;;;2.45;;
69253;SDS011;56364;41.816;12.448;2023-08-06T18:54:06;16.77;;;2.03;;
69253;SDS011;56364;41.816;12.448;2023-08-06T18:56:32;12.05;;;2.30;;
69253;SDS011;56364;41.816;12.448;2023-08-06T18:59:00;13.95;;;2.20;;
69253;SDS011;56364;41.816;12.448;2023-08-06T19:01:26;16.33;;;2.78;;